sensor_id;sensor_type;location;lat;lon;timestamp;temperature;humidity
13472;DHT22;6808;49.444;11.034;2024-01-30T00:02:16;2.00;99.90
13472;DHT22;6808;49.444;11.034;2024-01-30T00:04:42;1.90;99.90
13472;DHT22;6808;49.444;11.034;2024-01-30T00:07:08;1.90;99.90
13472;DHT22;6808;49.444;11.034;2024-01-30T00:09:33;1.80;99.90
13472;DHT22;6808;49.444;11.034;2024-01-30T00:11:59;1.80;99.90
13472;DHT22;6808;49.444;11.034;2024-01-30T00:14:25;1.60;99.90
13472;DHT22;6808;49.444;11.034;2024-01-30T00:16:51;1.60;99.90
13472;DHT22;6808;49.444;11.034;2024-01-30T00:19:17;1.60;99.90
13472;DHT22;6808;49.444;11.034;2024-01-30T00:21:43;1.60;99.90
13472;DHT22;6808;49.444;11.034;2024-01-30T00:24:08;1.60;99.90
13472;DHT22;6808;49.444;11.034;2024-01-30T00:26:34;1.60;99.90
13472;DHT22;6808;49.444;11.034;2024-01-30T00:28:59;1.60;99.90
13472;DHT22;6808;49.444;11.034;2024-01-30T00:31:25;1.60;99.90
13472;DHT22;6808;49.444;11.034;2024-01-30T00:33:51;1.60;99.90
13472;DHT22;6808;49.444;11.034;2024-01-30T00:36:16;1.60;99.90
13472;DHT22;6808;49.444;11.034;2024-01-30T00:38:42;1.60;99.90
13472;DHT22;6808;49.444;11.034;2024-01-30T00:41:08;1.60;99.90
13472;DHT22;6808;49.444;11.034;2024-01-30T00:43:35;1.60;99.90
13472;DHT22;6808;49.444;11.034;2024-01-30T00:46:00;1.60;99.90
13472;DHT22;6808;49.444;11.034;2024-01-30T00:48:26;1.60;99.90
13472;DHT22;6808;49.444;11.034;2024-01-30T00:50:52;1.60;99.90
13472;DHT22;6808;49.444;11.034;2024-01-30T00:53:17;1.60;99.90
13472;DHT22;6808;49.444;11.034;2024-01-30T00:55:43;1.60;99.90
13472;DHT22;6808;49.444;11.034;2024-01-30T00:58:08;1.60;99.90
13472;DHT22;6808;49.444;11.034;2024-01-30T01:00:34;1.50;99.90
13472;DHT22;6808;49.444;11.034;2024-01-30T01:03:00;1.50;99.90
13472;DHT22;6808;49.444;11.034;2024-01-30T01:05:26;1.40;99.90
13472;DHT22;6808;49.444;11.034;2024-01-30T01:07:51;1.40;99.90
13472;DHT22;6808;49.444;11.034;2024-01-30T01:10:17;1.40;99.90
13472;DHT22;6808;49.444;11.034;2024-01-30T01:12:43;1.50;99.90
13472;DHT22;6808;49.444;11.034;2024-01-30T01:15:09;1.50;99.90
13472;DHT22;6808;49.444;11.034;2024-01-30T01:17:39;1.50;99.90
13472;DHT22;6808;49.444;11.034;2024-01-30T01:20:05;1.40;99.90
13472;DHT22;6808;49.444;11.034;2024-01-30T01:22:31;1.40;99.90
13472;DHT22;6808;49.444;11.034;2024-01-30T01:24:58;1.40;99.90
13472;DHT22;6808;49.444;11.034;2024-01-30T01:27:23;1.30;99.90
13472;DHT22;6808;49.444;11.034;2024-01-30T01:29:49;1.30;99.90
13472;DHT22;6808;49.444;11.034;2024-01-30T01:32:14;1.30;99.90
13472;DHT22;6808;49.444;11.034;2024-01-30T01:34:40;1.30;99.90
13472;DHT22;6808;49.444;11.034;2024-01-30T01:37:05;1.30;99.90
13472;DHT22;6808;49.444;11.034;2024-01-30T01:39:32;1.30;99.90
13472;DHT22;6808;49.444;11.034;2024-01-30T01:41:58;1.30;99.90
13472;DHT22;6808;49.444;11.034;2024-01-30T01:44:23;1.30;99.90
13472;DHT22;6808;49.444;11.034;2024-01-30T01:46:49;1.30;99.90
13472;DHT22;6808;49.444;11.034;2024-01-30T01:49:16;1.30;99.90
13472;DHT22;6808;49.444;11.034;2024-01-30T01:51:42;1.30;99.90
13472;DHT22;6808;49.444;11.034;2024-01-30T01:54:09;1.30;99.90
13472;DHT22;6808;49.444;11.034;2024-01-30T01:56:35;1.30;99.90
13472;DHT22;6808;49.444;11.034;2024-01-30T01:59:06;1.40;99.90
13472;DHT22;6808;49.444;11.034;2024-01-30T02:01:36;1.40;99.90
13472;DHT22;6808;49.444;11.034;2024-01-30T02:04:02;1.50;99.90
13472;DHT22;6808;49.444;11.034;2024-01-30T02:06:28;1.60;99.90
13472;DHT22;6808;49.444;11.034;2024-01-30T02:08:54;1.60;99.80
13472;DHT22;6808;49.444;11.034;2024-01-30T02:11:21;1.60;99.80
13472;DHT22;6808;49.444;11.034;2024-01-30T02:13:47;1.60;99.80
13472;DHT22;6808;49.444;11.034;2024-01-30T02:16:12;1.40;99.80
13472;DHT22;6808;49.444;11.034;2024-01-30T02:18:38;1.40;99.80
13472;DHT22;6808;49.444;11.034;2024-01-30T02:21:08;1.40;99.80
13472;DHT22;6808;49.444;11.034;2024-01-30T02:23:34;1.40;99.90
13472;DHT22;6808;49.444;11.034;2024-01-30T02:26:00;1.40;99.90
13472;DHT22;6808;49.444;11.034;2024-01-30T02:28:26;1.20;99.90
13472;DHT22;6808;49.444;11.034;2024-01-30T02:30:52;1.20;99.90
13472;DHT22;6808;49.444;11.034;2024-01-30T02:33:18;1.20;99.90
13472;DHT22;6808;49.444;11.034;2024-01-30T02:35:44;1.20;99.90
13472;DHT22;6808;49.444;11.034;2024-01-30T02:38:09;1.20;99.90
13472;DHT22;6808;49.444;11.034;2024-01-30T02:40:35;1.20;99.90
13472;DHT22;6808;49.444;11.034;2024-01-30T02:43:02;1.20;99.90
13472;DHT22;6808;49.444;11.034;2024-01-30T02:45:28;1.10;99.90
13472;DHT22;6808;49.444;11.034;2024-01-30T02:47:53;1.10;99.90
13472;DHT22;6808;49.444;11.034;2024-01-30T02:50:19;1.10;99.90
13472;DHT22;6808;49.444;11.034;2024-01-30T02:52:44;1.10;99.90
13472;DHT22;6808;49.444;11.034;2024-01-30T02:55:10;1.10;99.90
13472;DHT22;6808;49.444;11.034;2024-01-30T02:57:36;1.00;99.90
13472;DHT22;6808;49.444;11.034;2024-01-30T03:00:01;1.00;99.90
13472;DHT22;6808;49.444;11.034;2024-01-30T03:02:29;1.00;99.90
13472;DHT22;6808;49.444;11.034;2024-01-30T03:04:54;1.10;99.90
13472;DHT22;6808;49.444;11.034;2024-01-30T03:07:20;1.10;99.90
13472;DHT22;6808;49.444;11.034;2024-01-30T03:09:45;1.00;99.90
13472;DHT22;6808;49.444;11.034;2024-01-30T03:12:11;0.90;99.90
13472;DHT22;6808;49.444;11.034;2024-01-30T03:14:37;1.00;99.90
13472;DHT22;6808;49.444;11.034;2024-01-30T03:17:03;1.00;99.90
13472;DHT22;6808;49.444;11.034;2024-01-30T03:19:28;1.00;99.90
13472;DHT22;6808;49.444;11.034;2024-01-30T03:21:54;1.00;99.90
13472;DHT22;6808;49.444;11.034;2024-01-30T03:24:19;0.90;99.90
13472;DHT22;6808;49.444;11.034;2024-01-30T03:26:45;0.90;99.90
13472;DHT22;6808;49.444;11.034;2024-01-30T03:29:10;0.90;99.90
13472;DHT22;6808;49.444;11.034;2024-01-30T03:31:36;1.40;99.90
13472;DHT22;6808;49.444;11.034;2024-01-30T03:34:02;1.00;99.90
13472;DHT22;6808;49.444;11.034;2024-01-30T03:36:27;0.90;99.90
13472;DHT22;6808;49.444;11.034;2024-01-30T03:38:53;0.90;99.90
13472;DHT22;6808;49.444;11.034;2024-01-30T03:41:19;0.90;99.90
13472;DHT22;6808;49.444;11.034;2024-01-30T03:43:44;0.90;99.90
13472;DHT22;6808;49.444;11.034;2024-01-30T03:46:12;0.90;99.90
13472;DHT22;6808;49.444;11.034;2024-01-30T03:48:37;0.90;99.90
13472;DHT22;6808;49.444;11.034;2024-01-30T03:51:03;0.90;99.90
13472;DHT22;6808;49.444;11.034;2024-01-30T03:53:29;0.90;99.90
13472;DHT22;6808;49.444;11.034;2024-01-30T03:55:55;1.00;99.90
13472;DHT22;6808;49.444;11.034;2024-01-30T03:58:20;1.00;99.90
13472;DHT22;6808;49.444;11.034;2024-01-30T04:00:46;1.00;99.90
13472;DHT22;6808;49.444;11.034;2024-01-30T04:03:12;1.00;99.90
13472;DHT22;6808;49.444;11.034;2024-01-30T04:05:37;1.00;99.90
13472;DHT22;6808;49.444;11.034;2024-01-30T04:08:03;1.00;99.90
13472;DHT22;6808;49.444;11.034;2024-01-30T04:10:28;1.00;99.90
13472;DHT22;6808;49.444;11.034;2024-01-30T04:12:54;1.00;99.90
13472;DHT22;6808;49.444;11.034;2024-01-30T04:15:20;1.00;99.90
13472;DHT22;6808;49.444;11.034;2024-01-30T04:17:45;1.00;99.90
13472;DHT22;6808;49.444;11.034;2024-01-30T04:20:14;1.00;99.90
13472;DHT22;6808;49.444;11.034;2024-01-30T04:22:43;1.00;99.90
13472;DHT22;6808;49.444;11.034;2024-01-30T04:25:09;1.10;99.90
13472;DHT22;6808;49.444;11.034;2024-01-30T04:27:34;1.00;99.90
13472;DHT22;6808;49.444;11.034;2024-01-30T04:30:00;1.00;99.90
13472;DHT22;6808;49.444;11.034;2024-01-30T04:32:25;1.00;99.90
13472;DHT22;6808;49.444;11.034;2024-01-30T04:34:51;1.00;99.90
13472;DHT22;6808;49.444;11.034;2024-01-30T04:37:16;1.00;99.90
13472;DHT22;6808;49.444;11.034;2024-01-30T04:39:42;1.00;99.90
13472;DHT22;6808;49.444;11.034;2024-01-30T04:42:08;1.00;99.90
13472;DHT22;6808;49.444;11.034;2024-01-30T04:44:33;1.00;99.90
13472;DHT22;6808;49.444;11.034;2024-01-30T04:46:59;1.00;99.90
13472;DHT22;6808;49.444;11.034;2024-01-30T04:49:27;1.00;99.90
13472;DHT22;6808;49.444;11.034;2024-01-30T04:51:52;1.10;99.90
13472;DHT22;6808;49.444;11.034;2024-01-30T04:54:18;1.10;99.90
13472;DHT22;6808;49.444;11.034;2024-01-30T04:56:44;1.10;99.90
13472;DHT22;6808;49.444;11.034;2024-01-30T04:59:09;1.10;99.90
13472;DHT22;6808;49.444;11.034;2024-01-30T05:01:35;1.10;99.90
13472;DHT22;6808;49.444;11.034;2024-01-30T05:04:00;1.10;99.90
13472;DHT22;6808;49.444;11.034;2024-01-30T05:06:29;1.10;99.90
13472;DHT22;6808;49.444;11.034;2024-01-30T05:08:55;1.10;99.90
13472;DHT22;6808;49.444;11.034;2024-01-30T05:11:20;1.10;99.90
13472;DHT22;6808;49.444;11.034;2024-01-30T05:13:46;1.10;99.90
13472;DHT22;6808;49.444;11.034;2024-01-30T05:16:11;1.10;99.90
13472;DHT22;6808;49.444;11.034;2024-01-30T05:18:37;1.10;99.90
13472;DHT22;6808;49.444;11.034;2024-01-30T05:21:03;1.10;99.90
13472;DHT22;6808;49.444;11.034;2024-01-30T05:23:29;1.10;99.90
13472;DHT22;6808;49.444;11.034;2024-01-30T05:25:54;1.10;99.90
13472;DHT22;6808;49.444;11.034;2024-01-30T05:28:20;1.10;99.90
13472;DHT22;6808;49.444;11.034;2024-01-30T05:30:45;1.20;99.90
13472;DHT22;6808;49.444;11.034;2024-01-30T05:33:11;1.20;99.90
13472;DHT22;6808;49.444;11.034;2024-01-30T05:35:37;1.20;99.90
13472;DHT22;6808;49.444;11.034;2024-01-30T05:38:03;1.20;99.90
13472;DHT22;6808;49.444;11.034;2024-01-30T05:40:29;1.30;99.90
13472;DHT22;6808;49.444;11.034;2024-01-30T05:42:55;1.30;99.90
13472;DHT22;6808;49.444;11.034;2024-01-30T05:45:21;1.30;99.90
13472;DHT22;6808;49.444;11.034;2024-01-30T05:47:48;1.30;99.90
13472;DHT22;6808;49.444;11.034;2024-01-30T05:50:14;1.30;99.90
13472;DHT22;6808;49.444;11.034;2024-01-30T05:52:40;1.30;99.90
13472;DHT22;6808;49.444;11.034;2024-01-30T05:55:06;1.30;99.90
13472;DHT22;6808;49.444;11.034;2024-01-30T05:57:31;1.30;99.90
13472;DHT22;6808;49.444;11.034;2024-01-30T05:59:57;1.30;99.90
13472;DHT22;6808;49.444;11.034;2024-01-30T06:02:22;1.30;99.90
13472;DHT22;6808;49.444;11.034;2024-01-30T06:04:48;1.40;99.90
13472;DHT22;6808;49.444;11.034;2024-01-30T06:07:14;1.40;99.90
13472;DHT22;6808;49.444;11.034;2024-01-30T06:09:39;1.40;99.90
13472;DHT22;6808;49.444;11.034;2024-01-30T06:12:06;1.40;99.90
13472;DHT22;6808;49.444;11.034;2024-01-30T06:14:31;1.40;99.90
13472;DHT22;6808;49.444;11.034;2024-01-30T06:16:58;1.40;99.90
13472;DHT22;6808;49.444;11.034;2024-01-30T06:19:24;1.40;99.90
13472;DHT22;6808;49.444;11.034;2024-01-30T06:21:50;1.40;99.90
13472;DHT22;6808;49.444;11.034;2024-01-30T06:24:15;1.40;99.90
13472;DHT22;6808;49.444;11.034;2024-01-30T06:26:41;1.40;99.90
13472;DHT22;6808;49.444;11.034;2024-01-30T06:29:06;1.40;99.90
13472;DHT22;6808;49.444;11.034;2024-01-30T06:31:33;1.40;99.90
13472;DHT22;6808;49.444;11.034;2024-01-30T06:33:58;1.40;99.90
13472;DHT22;6808;49.444;11.034;2024-01-30T06:36:24;1.40;99.90
13472;DHT22;6808;49.444;11.034;2024-01-30T06:38:49;1.40;99.90
13472;DHT22;6808;49.444;11.034;2024-01-30T06:41:15;1.40;99.90
13472;DHT22;6808;49.444;11.034;2024-01-30T06:43:41;1.40;99.90
13472;DHT22;6808;49.444;11.034;2024-01-30T06:46:06;1.50;99.90
13472;DHT22;6808;49.444;11.034;2024-01-30T06:48:32;1.50;99.90
13472;DHT22;6808;49.444;11.034;2024-01-30T06:50:57;1.60;99.90
13472;DHT22;6808;49.444;11.034;2024-01-30T06:53:23;1.50;99.90
13472;DHT22;6808;49.444;11.034;2024-01-30T06:55:49;1.50;99.90
13472;DHT22;6808;49.444;11.034;2024-01-30T06:58:14;1.50;99.90
13472;DHT22;6808;49.444;11.034;2024-01-30T07:00:40;1.50;99.90
13472;DHT22;6808;49.444;11.034;2024-01-30T07:03:06;1.50;99.90
13472;DHT22;6808;49.444;11.034;2024-01-30T07:05:31;1.40;99.90
13472;DHT22;6808;49.444;11.034;2024-01-30T07:07:57;1.50;99.90
13472;DHT22;6808;49.444;11.034;2024-01-30T07:10:23;1.40;99.90
13472;DHT22;6808;49.444;11.034;2024-01-30T07:12:48;1.40;99.90
13472;DHT22;6808;49.444;11.034;2024-01-30T07:15:14;1.40;99.90
13472;DHT22;6808;49.444;11.034;2024-01-30T07:17:42;1.50;99.90
13472;DHT22;6808;49.444;11.034;2024-01-30T07:20:08;1.50;99.90
13472;DHT22;6808;49.444;11.034;2024-01-30T07:22:34;1.50;99.90
13472;DHT22;6808;49.444;11.034;2024-01-30T07:25:00;1.50;99.90
13472;DHT22;6808;49.444;11.034;2024-01-30T07:27:26;1.50;99.90
13472;DHT22;6808;49.444;11.034;2024-01-30T07:29:51;1.50;99.90
13472;DHT22;6808;49.444;11.034;2024-01-30T07:32:17;1.50;99.90
13472;DHT22;6808;49.444;11.034;2024-01-30T07:34:43;1.50;99.90
13472;DHT22;6808;49.444;11.034;2024-01-30T07:37:09;1.60;99.90
13472;DHT22;6808;49.444;11.034;2024-01-30T07:39:36;1.60;99.90
13472;DHT22;6808;49.444;11.034;2024-01-30T07:42:02;1.60;99.90
13472;DHT22;6808;49.444;11.034;2024-01-30T07:44:28;1.60;99.90
13472;DHT22;6808;49.444;11.034;2024-01-30T07:46:53;1.60;99.90
13472;DHT22;6808;49.444;11.034;2024-01-30T07:49:20;1.70;99.90
13472;DHT22;6808;49.444;11.034;2024-01-30T07:51:45;1.60;99.90
13472;DHT22;6808;49.444;11.034;2024-01-30T07:54:11;1.70;99.90
13472;DHT22;6808;49.444;11.034;2024-01-30T07:56:37;1.70;99.90
13472;DHT22;6808;49.444;11.034;2024-01-30T07:59:02;1.70;99.90
13472;DHT22;6808;49.444;11.034;2024-01-30T08:01:28;1.70;99.90
13472;DHT22;6808;49.444;11.034;2024-01-30T08:03:54;1.80;99.90
13472;DHT22;6808;49.444;11.034;2024-01-30T08:06:19;1.80;99.90
13472;DHT22;6808;49.444;11.034;2024-01-30T08:08:45;1.80;99.90
13472;DHT22;6808;49.444;11.034;2024-01-30T08:11:10;1.90;99.90
13472;DHT22;6808;49.444;11.034;2024-01-30T08:13:36;1.90;99.90
13472;DHT22;6808;49.444;11.034;2024-01-30T08:16:01;1.90;99.90
13472;DHT22;6808;49.444;11.034;2024-01-30T08:18:27;2.00;99.90
13472;DHT22;6808;49.444;11.034;2024-01-30T08:20:52;2.00;99.90
13472;DHT22;6808;49.444;11.034;2024-01-30T08:23:18;2.00;99.90
13472;DHT22;6808;49.444;11.034;2024-01-30T08:25:44;2.00;99.90
13472;DHT22;6808;49.444;11.034;2024-01-30T08:28:09;2.10;99.90
13472;DHT22;6808;49.444;11.034;2024-01-30T08:30:35;2.10;99.90
13472;DHT22;6808;49.444;11.034;2024-01-30T08:33:01;2.10;99.90
13472;DHT22;6808;49.444;11.034;2024-01-30T08:35:26;2.20;99.90
13472;DHT22;6808;49.444;11.034;2024-01-30T08:37:52;2.20;99.90
13472;DHT22;6808;49.444;11.034;2024-01-30T08:40:17;2.20;99.90
13472;DHT22;6808;49.444;11.034;2024-01-30T08:42:43;2.30;99.90
13472;DHT22;6808;49.444;11.034;2024-01-30T08:45:09;2.30;99.90
13472;DHT22;6808;49.444;11.034;2024-01-30T08:47:35;2.40;99.90
13472;DHT22;6808;49.444;11.034;2024-01-30T08:50:00;2.40;99.90
13472;DHT22;6808;49.444;11.034;2024-01-30T08:52:26;2.50;99.90
13472;DHT22;6808;49.444;11.034;2024-01-30T08:54:51;2.50;99.90
13472;DHT22;6808;49.444;11.034;2024-01-30T08:57:17;2.50;99.90
13472;DHT22;6808;49.444;11.034;2024-01-30T08:59:42;2.60;99.90
13472;DHT22;6808;49.444;11.034;2024-01-30T09:02:11;2.60;99.90
13472;DHT22;6808;49.444;11.034;2024-01-30T09:04:38;2.70;99.90
13472;DHT22;6808;49.444;11.034;2024-01-30T09:07:04;3.70;99.90
13472;DHT22;6808;49.444;11.034;2024-01-30T09:09:33;2.80;99.90
13472;DHT22;6808;49.444;11.034;2024-01-30T09:11:59;2.90;99.90
13472;DHT22;6808;49.444;11.034;2024-01-30T09:14:29;2.90;99.90
13472;DHT22;6808;49.444;11.034;2024-01-30T09:16:56;3.00;99.90
13472;DHT22;6808;49.444;11.034;2024-01-30T09:19:21;3.10;99.90
13472;DHT22;6808;49.444;11.034;2024-01-30T09:21:47;3.20;99.90
13472;DHT22;6808;49.444;11.034;2024-01-30T09:24:12;3.30;99.90
13472;DHT22;6808;49.444;11.034;2024-01-30T09:26:38;3.40;99.90
13472;DHT22;6808;49.444;11.034;2024-01-30T09:29:03;3.50;99.90
13472;DHT22;6808;49.444;11.034;2024-01-30T09:31:29;3.60;99.90
13472;DHT22;6808;49.444;11.034;2024-01-30T09:33:54;3.70;99.90
13472;DHT22;6808;49.444;11.034;2024-01-30T09:36:20;3.80;99.50
13472;DHT22;6808;49.444;11.034;2024-01-30T09:38:46;3.90;99.60
13472;DHT22;6808;49.444;11.034;2024-01-30T09:41:12;3.90;99.50
13472;DHT22;6808;49.444;11.034;2024-01-30T09:43:39;4.00;99.60
13472;DHT22;6808;49.444;11.034;2024-01-30T09:46:11;4.10;99.40
13472;DHT22;6808;49.444;11.034;2024-01-30T09:48:39;4.10;99.20
13472;DHT22;6808;49.444;11.034;2024-01-30T09:51:07;4.20;99.10
13472;DHT22;6808;49.444;11.034;2024-01-30T09:53:32;4.20;99.20
13472;DHT22;6808;49.444;11.034;2024-01-30T09:55:58;4.20;99.10
13472;DHT22;6808;49.444;11.034;2024-01-30T09:58:24;4.30;99.10
13472;DHT22;6808;49.444;11.034;2024-01-30T10:00:49;4.30;99.10
13472;DHT22;6808;49.444;11.034;2024-01-30T10:03:15;4.30;99.10
13472;DHT22;6808;49.444;11.034;2024-01-30T10:05:40;4.40;99.10
13472;DHT22;6808;49.444;11.034;2024-01-30T10:08:07;4.50;99.00
13472;DHT22;6808;49.444;11.034;2024-01-30T10:10:35;4.50;99.00
13472;DHT22;6808;49.444;11.034;2024-01-30T10:13:01;4.60;99.00
13472;DHT22;6808;49.444;11.034;2024-01-30T10:15:28;4.60;98.70
13472;DHT22;6808;49.444;11.034;2024-01-30T10:17:54;4.70;98.60
13472;DHT22;6808;49.444;11.034;2024-01-30T10:20:19;4.80;98.70
13472;DHT22;6808;49.444;11.034;2024-01-30T10:22:47;4.90;98.50
13472;DHT22;6808;49.444;11.034;2024-01-30T10:25:13;4.90;98.40
13472;DHT22;6808;49.444;11.034;2024-01-30T10:27:42;5.00;98.50
13472;DHT22;6808;49.444;11.034;2024-01-30T10:30:08;5.00;98.60
13472;DHT22;6808;49.444;11.034;2024-01-30T10:32:33;5.10;98.50
13472;DHT22;6808;49.444;11.034;2024-01-30T10:34:59;5.20;98.30
13472;DHT22;6808;49.444;11.034;2024-01-30T10:37:25;5.20;98.30
13472;DHT22;6808;49.444;11.034;2024-01-30T10:39:53;5.30;98.30
13472;DHT22;6808;49.444;11.034;2024-01-30T10:42:19;5.30;98.50
13472;DHT22;6808;49.444;11.034;2024-01-30T10:44:57;5.30;98.50
13472;DHT22;6808;49.444;11.034;2024-01-30T10:47:28;5.40;98.50
13472;DHT22;6808;49.444;11.034;2024-01-30T10:49:55;5.40;98.30
13472;DHT22;6808;49.444;11.034;2024-01-30T10:52:23;5.50;98.10
13472;DHT22;6808;49.444;11.034;2024-01-30T10:54:50;5.60;97.90
13472;DHT22;6808;49.444;11.034;2024-01-30T10:57:17;5.70;97.80
13472;DHT22;6808;49.444;11.034;2024-01-30T10:59:43;5.70;97.80
13472;DHT22;6808;49.444;11.034;2024-01-30T11:02:10;5.70;97.60
13472;DHT22;6808;49.444;11.034;2024-01-30T11:04:41;5.80;97.70
13472;DHT22;6808;49.444;11.034;2024-01-30T11:07:16;5.80;97.80
13472;DHT22;6808;49.444;11.034;2024-01-30T11:09:53;5.90;97.90
13472;DHT22;6808;49.444;11.034;2024-01-30T11:12:22;5.90;97.80
13472;DHT22;6808;49.444;11.034;2024-01-30T11:14:49;6.00;97.80
13472;DHT22;6808;49.444;11.034;2024-01-30T11:17:15;6.10;97.70
13472;DHT22;6808;49.444;11.034;2024-01-30T11:19:41;6.10;97.30
13472;DHT22;6808;49.444;11.034;2024-01-30T11:22:07;6.10;97.30
13472;DHT22;6808;49.444;11.034;2024-01-30T11:24:42;6.20;97.40
13472;DHT22;6808;49.444;11.034;2024-01-30T11:27:09;6.30;97.30
13472;DHT22;6808;49.444;11.034;2024-01-30T11:29:37;6.30;97.30
13472;DHT22;6808;49.444;11.034;2024-01-30T11:32:05;6.40;97.40
13472;DHT22;6808;49.444;11.034;2024-01-30T11:34:32;6.40;97.20
13472;DHT22;6808;49.444;11.034;2024-01-30T11:37:03;6.50;97.50
13472;DHT22;6808;49.444;11.034;2024-01-30T11:39:32;6.50;97.50
13472;DHT22;6808;49.444;11.034;2024-01-30T11:41:59;6.70;97.00
13472;DHT22;6808;49.444;11.034;2024-01-30T11:44:25;6.70;96.70
13472;DHT22;6808;49.444;11.034;2024-01-30T11:46:51;6.80;96.90
13472;DHT22;6808;49.444;11.034;2024-01-30T11:49:17;6.90;96.90
13472;DHT22;6808;49.444;11.034;2024-01-30T11:51:45;6.90;96.80
13472;DHT22;6808;49.444;11.034;2024-01-30T11:54:11;6.90;96.80
13472;DHT22;6808;49.444;11.034;2024-01-30T11:56:37;7.00;96.70
13472;DHT22;6808;49.444;11.034;2024-01-30T11:59:06;7.10;96.60
13472;DHT22;6808;49.444;11.034;2024-01-30T12:01:32;7.10;96.60
13472;DHT22;6808;49.444;11.034;2024-01-30T12:04:01;7.10;96.80
13472;DHT22;6808;49.444;11.034;2024-01-30T12:06:27;7.10;97.10
13472;DHT22;6808;49.444;11.034;2024-01-30T12:08:57;7.20;96.70
13472;DHT22;6808;49.444;11.034;2024-01-30T12:11:24;7.20;96.60
13472;DHT22;6808;49.444;11.034;2024-01-30T12:13:50;7.30;96.40
13472;DHT22;6808;49.444;11.034;2024-01-30T12:16:16;7.30;96.20
13472;DHT22;6808;49.444;11.034;2024-01-30T12:18:42;7.40;96.20
13472;DHT22;6808;49.444;11.034;2024-01-30T12:21:08;7.40;96.10
13472;DHT22;6808;49.444;11.034;2024-01-30T12:23:35;7.50;95.90
13472;DHT22;6808;49.444;11.034;2024-01-30T12:26:00;7.50;96.00
13472;DHT22;6808;49.444;11.034;2024-01-30T12:28:27;7.50;96.20
13472;DHT22;6808;49.444;11.034;2024-01-30T12:30:56;7.60;96.20
13472;DHT22;6808;49.444;11.034;2024-01-30T12:33:27;7.60;96.30
13472;DHT22;6808;49.444;11.034;2024-01-30T12:35:53;7.70;96.30
13472;DHT22;6808;49.444;11.034;2024-01-30T12:38:19;7.70;95.80
13472;DHT22;6808;49.444;11.034;2024-01-30T12:40:45;7.80;96.00
13472;DHT22;6808;49.444;11.034;2024-01-30T12:43:11;7.80;96.10
13472;DHT22;6808;49.444;11.034;2024-01-30T12:45:36;7.80;95.80
13472;DHT22;6808;49.444;11.034;2024-01-30T12:48:02;7.90;95.70
13472;DHT22;6808;49.444;11.034;2024-01-30T12:50:28;7.90;95.70
13472;DHT22;6808;49.444;11.034;2024-01-30T12:52:53;8.00;95.50
13472;DHT22;6808;49.444;11.034;2024-01-30T12:55:23;8.00;95.60
13472;DHT22;6808;49.444;11.034;2024-01-30T12:57:54;8.10;95.50
13472;DHT22;6808;49.444;11.034;2024-01-30T13:00:20;8.10;95.30
13472;DHT22;6808;49.444;11.034;2024-01-30T13:02:45;8.10;95.50
13472;DHT22;6808;49.444;11.034;2024-01-30T13:05:12;8.20;95.70
13472;DHT22;6808;49.444;11.034;2024-01-30T13:07:38;8.20;95.40
13472;DHT22;6808;49.444;11.034;2024-01-30T13:10:03;8.20;95.10
13472;DHT22;6808;49.444;11.034;2024-01-30T13:12:30;8.30;95.40
13472;DHT22;6808;49.444;11.034;2024-01-30T13:14:57;8.30;95.50
13472;DHT22;6808;49.444;11.034;2024-01-30T13:17:23;8.30;95.20
13472;DHT22;6808;49.444;11.034;2024-01-30T13:19:48;8.40;95.10
13472;DHT22;6808;49.444;11.034;2024-01-30T13:22:15;8.60;95.30
13472;DHT22;6808;49.444;11.034;2024-01-30T13:24:40;8.50;95.00
13472;DHT22;6808;49.444;11.034;2024-01-30T13:27:06;8.50;94.90
13472;DHT22;6808;49.444;11.034;2024-01-30T13:29:32;8.60;95.20
13472;DHT22;6808;49.444;11.034;2024-01-30T13:31:58;8.70;94.80
13472;DHT22;6808;49.444;11.034;2024-01-30T13:34:24;8.70;94.70
13472;DHT22;6808;49.444;11.034;2024-01-30T13:36:50;8.70;94.90
13472;DHT22;6808;49.444;11.034;2024-01-30T13:39:16;9.10;95.00
13472;DHT22;6808;49.444;11.034;2024-01-30T13:41:42;8.70;94.90
13472;DHT22;6808;49.444;11.034;2024-01-30T13:44:08;8.70;95.20
13472;DHT22;6808;49.444;11.034;2024-01-30T13:46:35;8.70;95.00
13472;DHT22;6808;49.444;11.034;2024-01-30T13:49:01;8.70;95.20
13472;DHT22;6808;49.444;11.034;2024-01-30T13:51:26;8.80;95.50
13472;DHT22;6808;49.444;11.034;2024-01-30T13:53:52;8.70;95.40
13472;DHT22;6808;49.444;11.034;2024-01-30T13:56:19;8.70;95.10
13472;DHT22;6808;49.444;11.034;2024-01-30T13:58:45;8.70;95.70
13472;DHT22;6808;49.444;11.034;2024-01-30T14:01:10;9.00;95.80
13472;DHT22;6808;49.444;11.034;2024-01-30T14:03:36;8.70;95.90
13472;DHT22;6808;49.444;11.034;2024-01-30T14:06:02;8.80;95.70
13472;DHT22;6808;49.444;11.034;2024-01-30T14:08:27;8.70;95.30
13472;DHT22;6808;49.444;11.034;2024-01-30T14:10:54;8.70;95.70
13472;DHT22;6808;49.444;11.034;2024-01-30T14:13:21;8.70;95.60
13472;DHT22;6808;49.444;11.034;2024-01-30T14:15:48;8.70;95.60
13472;DHT22;6808;49.444;11.034;2024-01-30T14:18:13;8.70;95.90
13472;DHT22;6808;49.444;11.034;2024-01-30T14:20:39;8.70;95.80
13472;DHT22;6808;49.444;11.034;2024-01-30T14:23:04;9.50;96.30
13472;DHT22;6808;49.444;11.034;2024-01-30T14:25:30;8.70;96.00
13472;DHT22;6808;49.444;11.034;2024-01-30T14:27:55;8.70;96.00
13472;DHT22;6808;49.444;11.034;2024-01-30T14:30:21;8.70;95.80
13472;DHT22;6808;49.444;11.034;2024-01-30T14:32:47;8.70;96.00
13472;DHT22;6808;49.444;11.034;2024-01-30T14:35:13;8.70;96.20
13472;DHT22;6808;49.444;11.034;2024-01-30T14:37:38;8.70;96.50
13472;DHT22;6808;49.444;11.034;2024-01-30T14:40:04;8.60;96.20
13472;DHT22;6808;49.444;11.034;2024-01-30T14:42:32;8.60;96.20
13472;DHT22;6808;49.444;11.034;2024-01-30T14:44:58;8.60;96.40
13472;DHT22;6808;49.444;11.034;2024-01-30T14:47:24;8.60;96.60
13472;DHT22;6808;49.444;11.034;2024-01-30T14:49:50;8.60;96.40
13472;DHT22;6808;49.444;11.034;2024-01-30T14:52:17;8.60;96.40
13472;DHT22;6808;49.444;11.034;2024-01-30T14:54:42;8.60;96.50
13472;DHT22;6808;49.444;11.034;2024-01-30T14:57:08;8.90;96.60
13472;DHT22;6808;49.444;11.034;2024-01-30T14:59:34;8.60;96.50
13472;DHT22;6808;49.444;11.034;2024-01-30T15:02:00;8.30;96.40
13472;DHT22;6808;49.444;11.034;2024-01-30T15:04:26;8.60;96.60
13472;DHT22;6808;49.444;11.034;2024-01-30T15:06:52;8.50;96.80
13472;DHT22;6808;49.444;11.034;2024-01-30T15:09:17;8.60;96.90
13472;DHT22;6808;49.444;11.034;2024-01-30T15:11:46;8.50;96.70
13472;DHT22;6808;49.444;11.034;2024-01-30T15:14:11;8.80;96.90
13472;DHT22;6808;49.444;11.034;2024-01-30T15:16:37;8.50;96.70
13472;DHT22;6808;49.444;11.034;2024-01-30T15:19:03;8.40;96.80
13472;DHT22;6808;49.444;11.034;2024-01-30T15:21:30;8.50;96.70
13472;DHT22;6808;49.444;11.034;2024-01-30T15:23:56;8.50;96.60
13472;DHT22;6808;49.444;11.034;2024-01-30T15:26:21;8.50;96.60
13472;DHT22;6808;49.444;11.034;2024-01-30T15:28:47;8.50;96.60
13472;DHT22;6808;49.444;11.034;2024-01-30T15:31:13;8.40;96.60
13472;DHT22;6808;49.444;11.034;2024-01-30T15:33:38;8.40;96.70
13472;DHT22;6808;49.444;11.034;2024-01-30T15:36:04;8.40;96.70
13472;DHT22;6808;49.444;11.034;2024-01-30T15:38:30;8.40;96.80